sensor_id;sensor_type;location;lat;lon;timestamp;pressure;altitude;pressure_sealevel;temperature;humidity
50592;BME280;36548;50.506;30.834;2023-02-15T00:01:10;100859.75;;;3.33;51.86
50592;BME280;36548;50.506;30.834;2023-02-15T00:02:26;100850.63;;;3.45;51.74
50592;BME280;36548;50.506;30.834;2023-02-15T00:03:35;100859.75;;;3.33;51.78
50592;BME280;36548;50.506;30.834;2023-02-15T00:04:45;100861.46;;;3.35;51.95
50592;BME280;36548;50.506;30.834;2023-02-15T00:05:58;100858.73;;;3.38;51.86
50592;BME280;36548;50.506;30.834;2023-02-15T00:07:19;100856.97;;;3.39;51.91
50592;BME280;36548;50.506;30.834;2023-02-15T00:08:29;100855.43;;;3.29;52.04
50592;BME280;36548;50.506;30.834;2023-02-15T00:09:38;100864.20;;;3.32;52.25
50592;BME280;36548;50.506;30.834;2023-02-15T00:10:47;100853.55;;;3.34;52.23
50592;BME280;36548;50.506;30.834;2023-02-15T00:11:58;100859.67;;;3.36;52.24
50592;BME280;36548;50.506;30.834;2023-02-15T00:13:06;100859.75;;;3.33;52.07
50592;BME280;36548;50.506;30.834;2023-02-15T00:14:19;100864.12;;;3.35;52.27
50592;BME280;36548;50.506;30.834;2023-02-15T00:15:28;100865.91;;;3.35;52.18
50592;BME280;36548;50.506;30.834;2023-02-15T00:16:38;100861.55;;;3.32;52.22
50592;BME280;36548;50.506;30.834;2023-02-15T00:17:54;100861.20;;;3.46;52.44
50592;BME280;36548;50.506;30.834;2023-02-15T00:19:06;100860.64;;;3.33;52.40
50592;BME280;36548;50.506;30.834;2023-02-15T00:20:18;100859.19;;;3.20;52.47
50592;BME280;36548;50.506;30.834;2023-02-15T00:21:34;100857.05;;;3.34;52.65
50592;BME280;36548;50.506;30.834;2023-02-15T00:22:45;100859.11;;;3.23;52.76
50592;BME280;36548;50.506;30.834;2023-02-15T00:23:55;100856.38;;;3.26;52.86
50592;BME280;36548;50.506;30.834;2023-02-15T00:25:05;100862.66;;;3.22;52.71
50592;BME280;36548;50.506;30.834;2023-02-15T00:26:20;100856.23;;;3.32;52.79
50592;BME280;36548;50.506;30.834;2023-02-15T00:27:33;100863.97;;;3.05;52.98
50592;BME280;36548;50.506;30.834;2023-02-15T00:28:44;100860.30;;;3.11;53.00
50592;BME280;36548;50.506;30.834;2023-02-15T00:29:54;100862.78;;;3.17;53.22
50592;BME280;36548;50.506;30.834;2023-02-15T00:31:08;100868.09;;;3.17;53.04
50592;BME280;36548;50.506;30.834;2023-02-15T00:32:23;100860.66;;;3.32;52.95
50592;BME280;36548;50.506;30.834;2023-02-15T00:33:32;100856.50;;;3.21;52.82
50592;BME280;36548;50.506;30.834;2023-02-15T00:34:42;100865.36;;;3.20;52.69
50592;BME280;36548;50.506;30.834;2023-02-15T00:35:57;100868.95;;;3.18;52.77
50592;BME280;36548;50.506;30.834;2023-02-15T00:37:06;100869.80;;;3.20;53.03
50592;BME280;36548;50.506;30.834;2023-02-15T00:38:16;100858.25;;;3.22;52.90
50592;BME280;36548;50.506;30.834;2023-02-15T00:39:25;100864.50;;;3.20;52.52
50592;BME280;36548;50.506;30.834;2023-02-15T00:40:41;100862.70;;;3.20;52.72
50592;BME280;36548;50.506;30.834;2023-02-15T00:41:51;100871.77;;;3.12;52.81
50592;BME280;36548;50.506;30.834;2023-02-15T00:43:00;100868.21;;;3.13;52.71
50592;BME280;36548;50.506;30.834;2023-02-15T00:44:09;100864.63;;;3.14;52.68
50592;BME280;36548;50.506;30.834;2023-02-15T00:45:18;100867.41;;;3.09;52.15
50592;BME280;36548;50.506;30.834;2023-02-15T00:46:27;100871.03;;;3.05;52.40
50592;BME280;36548;50.506;30.834;2023-02-15T00:47:37;100868.30;;;3.10;52.46
50592;BME280;36548;50.506;30.834;2023-02-15T00:48:46;100869.07;;;3.13;52.32
50592;BME280;36548;50.506;30.834;2023-02-15T00:50:03;100866.09;;;3.27;52.41
50592;BME280;36548;50.506;30.834;2023-02-15T00:51:13;100865.52;;;3.14;52.34
50592;BME280;36548;50.506;30.834;2023-02-15T00:52:22;100876.12;;;3.14;52.19
50592;BME280;36548;50.506;30.834;2023-02-15T00:53:32;100872.70;;;3.09;52.11
50592;BME280;36548;50.506;30.834;2023-02-15T00:54:41;100869.03;;;3.15;52.22
50592;BME280;36548;50.506;30.834;2023-02-15T00:55:50;100880.50;;;3.17;52.04
50592;BME280;36548;50.506;30.834;2023-02-15T00:57:00;100873.39;;;3.17;51.83
50592;BME280;36548;50.506;30.834;2023-02-15T00:58:11;100871.64;;;3.16;51.79
50592;BME280;36548;50.506;30.834;2023-02-15T00:59:20;100880.41;;;3.20;51.95
50592;BME280;36548;50.506;30.834;2023-02-15T01:00:29;100875.19;;;3.17;51.60
50592;BME280;36548;50.506;30.834;2023-02-15T01:01:38;100875.97;;;3.20;51.77
50592;BME280;36548;50.506;30.834;2023-02-15T01:02:47;100878.91;;;3.08;51.77
50592;BME280;36548;50.506;30.834;2023-02-15T01:03:56;100878.91;;;3.10;51.62
50592;BME280;36548;50.506;30.834;2023-02-15T01:05:06;100872.83;;;3.04;52.03
50592;BME280;36548;50.506;30.834;2023-02-15T01:06:17;100871.11;;;3.02;51.91
50592;BME280;36548;50.506;30.834;2023-02-15T01:07:28;100873.11;;;2.92;52.18
50592;BME280;36548;50.506;30.834;2023-02-15T01:08:38;100877.43;;;2.96;52.15
50592;BME280;36548;50.506;30.834;2023-02-15T01:09:49;100871.35;;;2.91;51.99
50592;BME280;36548;50.506;30.834;2023-02-15T01:11:10;100873.22;;;2.87;51.86
50592;BME280;36548;50.506;30.834;2023-02-15T01:12:20;100881.88;;;2.96;51.77
50592;BME280;36548;50.506;30.834;2023-02-15T01:13:29;100875.64;;;2.97;51.63
50592;BME280;36548;50.506;30.834;2023-02-15T01:14:39;100885.42;;;2.95;51.24
50592;BME280;36548;50.506;30.834;2023-02-15T01:15:55;100878.09;;;3.06;51.25
50592;BME280;36548;50.506;30.834;2023-02-15T01:17:05;100884.49;;;2.97;51.37
50592;BME280;36548;50.506;30.834;2023-02-15T01:18:16;100891.05;;;2.81;50.80
50592;BME280;36548;50.506;30.834;2023-02-15T01:19:26;100885.55;;;2.88;50.97
50592;BME280;36548;50.506;30.834;2023-02-15T01:20:39;100887.22;;;2.93;50.95
50592;BME280;36548;50.506;30.834;2023-02-15T01:21:50;100893.50;;;2.88;50.59
50592;BME280;36548;50.506;30.834;2023-02-15T01:22:59;100893.92;;;2.70;50.49
50592;BME280;36548;50.506;30.834;2023-02-15T01:24:13;100888.73;;;2.65;50.81
50592;BME280;36548;50.506;30.834;2023-02-15T01:25:23;100888.39;;;2.81;50.73
50592;BME280;36548;50.506;30.834;2023-02-15T01:26:58;100888.98;;;2.94;50.48
50592;BME280;36548;50.506;30.834;2023-02-15T01:28:08;100891.91;;;2.81;50.24
50592;BME280;36548;50.506;30.834;2023-02-15T01:29:17;100890.11;;;2.83;50.66
50592;BME280;36548;50.506;30.834;2023-02-15T01:30:27;100890.89;;;2.87;50.37
50592;BME280;36548;50.506;30.834;2023-02-15T01:31:36;100889.02;;;2.92;50.70
50592;BME280;36548;50.506;30.834;2023-02-15T01:32:53;100886.82;;;3.11;50.76
50592;BME280;36548;50.506;30.834;2023-02-15T01:34:02;100893.15;;;3.04;50.74
50592;BME280;36548;50.506;30.834;2023-02-15T01:35:12;100891.23;;;3.11;50.97
50592;BME280;36548;50.506;30.834;2023-02-15T01:36:23;100888.45;;;3.17;50.95
50592;BME280;36548;50.506;30.834;2023-02-15T01:37:34;100887.44;;;3.22;50.95
50592;BME280;36548;50.506;30.834;2023-02-15T01:38:43;100893.60;;;3.23;50.65
50592;BME280;36548;50.506;30.834;2023-02-15T01:39:51;100892.70;;;3.24;50.84
50592;BME280;36548;50.506;30.834;2023-02-15T01:41:03;100891.84;;;3.23;50.83
50592;BME280;36548;50.506;30.834;2023-02-15T01:42:31;100884.53;;;3.32;50.94
50592;BME280;36548;50.506;30.834;2023-02-15T01:43:42;100890.98;;;3.21;50.91
50592;BME280;36548;50.506;30.834;2023-02-15T01:45:00;100889.47;;;3.11;50.82
50592;BME280;36548;50.506;30.834;2023-02-15T01:46:13;100890.25;;;3.15;51.00
50592;BME280;36548;50.506;30.834;2023-02-15T01:47:37;100892.05;;;3.14;50.81
50592;BME280;36548;50.506;30.834;2023-02-15T01:48:50;100892.17;;;3.10;50.59
50592;BME280;36548;50.506;30.834;2023-02-15T01:50:03;100893.76;;;3.17;50.96
50592;BME280;36548;50.506;30.834;2023-02-15T01:51:14;100890.17;;;3.19;50.50
50592;BME280;36548;50.506;30.834;2023-02-15T01:54:21;100889.15;;;3.25;50.18
50592;BME280;36548;50.506;30.834;2023-02-15T01:55:37;100896.22;;;3.24;50.39
50592;BME280;36548;50.506;30.834;2023-02-15T01:56:48;100884.66;;;3.27;50.49
50592;BME280;36548;50.506;30.834;2023-02-15T01:57:58;100891.68;;;3.30;50.46
50592;BME280;36548;50.506;30.834;2023-02-15T01:59:13;100898.73;;;3.31;50.34
50592;BME280;36548;50.506;30.834;2023-02-15T02:00:24;100888.98;;;3.31;50.54
50592;BME280;36548;50.506;30.834;2023-02-15T02:01:34;100894.25;;;3.33;50.43
50592;BME280;36548;50.506;30.834;2023-02-15T02:02:45;100897.02;;;3.28;50.34
50592;BME280;36548;50.506;30.834;2023-02-15T02:05:11;100902.17;;;3.34;50.64
50592;BME280;36548;50.506;30.834;2023-02-15T02:06:21;100899.52;;;3.34;50.46
50592;BME280;36548;50.506;30.834;2023-02-15T02:07:37;100900.37;;;3.36;50.34
50592;BME280;36548;50.506;30.834;2023-02-15T02:08:48;100903.11;;;3.33;50.46
50592;BME280;36548;50.506;30.834;2023-02-15T02:09:57;100896.00;;;3.34;50.48
50592;BME280;36548;50.506;30.834;2023-02-15T02:11:13;100897.75;;;3.35;50.68
50592;BME280;36548;50.506;30.834;2023-02-15T02:12:25;100900.33;;;3.38;50.83
50592;BME280;36548;50.506;30.834;2023-02-15T02:13:35;100902.13;;;3.36;50.60
50592;BME280;36548;50.506;30.834;2023-02-15T02:14:45;100896.00;;;3.34;50.35
50592;BME280;36548;50.506;30.834;2023-02-15T02:18:02;100893.13;;;3.43;50.22
50592;BME280;36548;50.506;30.834;2023-02-15T02:21:02;100902.41;;;3.25;50.21
50592;BME280;36548;50.506;30.834;2023-02-15T02:23:56;100886.25;;;3.34;49.92
50592;BME280;36548;50.506;30.834;2023-02-15T02:26:54;100893.47;;;3.29;50.13
50592;BME280;36548;50.506;30.834;2023-02-15T02:31:36;100897.36;;;3.14;49.76
50592;BME280;36548;50.506;30.834;2023-02-15T02:37:24;100899.64;;;3.30;49.57
50592;BME280;36548;50.506;30.834;2023-02-15T02:42:01;100895.96;;;3.35;49.72
50592;BME280;36548;50.506;30.834;2023-02-15T02:43:20;100898.87;;;3.24;49.74
50592;BME280;36548;50.506;30.834;2023-02-15T02:44:46;100904.13;;;3.26;49.70
50592;BME280;36548;50.506;30.834;2023-02-15T02:45:59;100897.06;;;3.27;49.70
50592;BME280;36548;50.506;30.834;2023-02-15T02:47:14;100901.60;;;3.21;49.55
50592;BME280;36548;50.506;30.834;2023-02-15T02:48:25;100906.95;;;3.20;49.66
50592;BME280;36548;50.506;30.834;2023-02-15T02:49:37;100904.17;;;3.24;50.02
50592;BME280;36548;50.506;30.834;2023-02-15T02:50:47;100901.64;;;3.20;49.67
50592;BME280;36548;50.506;30.834;2023-02-15T02:52:03;100897.23;;;3.19;49.61
50592;BME280;36548;50.506;30.834;2023-02-15T02:53:20;100909.31;;;3.32;49.59
50592;BME280;36548;50.506;30.834;2023-02-15T02:54:29;100908.83;;;3.15;49.56
50592;BME280;36548;50.506;30.834;2023-02-15T02:57:19;100915.64;;;3.27;49.76
50592;BME280;36548;50.506;30.834;2023-02-15T02:58:36;100922.98;;;3.14;49.59
50592;BME280;36548;50.506;30.834;2023-02-15T02:59:53;100921.08;;;3.20;49.61
50592;BME280;36548;50.506;30.834;2023-02-15T03:01:13;100922.20;;;3.10;49.59
50592;BME280;36548;50.506;30.834;2023-02-15T03:02:32;100924.86;;;3.10;49.49
50592;BME280;36548;50.506;30.834;2023-02-15T03:03:57;100932.94;;;3.04;49.72
50592;BME280;36548;50.506;30.834;2023-02-15T03:05:12;100924.05;;;3.06;49.68
50592;BME280;36548;50.506;30.834;2023-02-15T03:06:36;100919.67;;;3.05;49.17
50592;BME280;36548;50.506;30.834;2023-02-15T03:07:47;100925.33;;;2.88;49.04
50592;BME280;36548;50.506;30.834;2023-02-15T03:10:18;100920.73;;;2.97;49.38
50592;BME280;36548;50.506;30.834;2023-02-15T03:11:29;100926.48;;;2.77;49.53
50592;BME280;36548;50.506;30.834;2023-02-15T03:12:40;100933.54;;;2.78;49.39
50592;BME280;36548;50.506;30.834;2023-02-15T03:13:50;100930.89;;;2.76;49.35
50592;BME280;36548;50.506;30.834;2023-02-15T03:15:09;100929.28;;;2.69;49.69
50592;BME280;36548;50.506;30.834;2023-02-15T03:16:21;100931.07;;;2.68;49.65
50592;BME280;36548;50.506;30.834;2023-02-15T03:17:45;100932.00;;;2.66;49.72
50592;BME280;36548;50.506;30.834;2023-02-15T03:21:49;100921.77;;;2.89;49.52
50592;BME280;36548;50.506;30.834;2023-02-15T03:23:04;100930.10;;;2.72;49.53
50592;BME280;36548;50.506;30.834;2023-02-15T03:24:17;100930.84;;;2.79;49.68
50592;BME280;36548;50.506;30.834;2023-02-15T03:25:36;100929.69;;;2.91;49.80
50592;BME280;36548;50.506;30.834;2023-02-15T03:26:49;100941.34;;;2.84;49.72
50592;BME280;36548;50.506;30.834;2023-02-15T03:28:16;100923.27;;;2.61;49.65
50592;BME280;36548;50.506;30.834;2023-02-15T03:29:27;100927.56;;;2.66;49.86
50592;BME280;36548;50.506;30.834;2023-02-15T03:30:40;100926.45;;;2.78;49.90
50592;BME280;36548;50.506;30.834;2023-02-15T03:31:56;100927.19;;;2.85;49.73
50592;BME280;36548;50.506;30.834;2023-02-15T03:33:13;100933.31;;;2.87;49.36
50592;BME280;36548;50.506;30.834;2023-02-15T03:34:22;100929.02;;;2.81;49.36
50592;BME280;36548;50.506;30.834;2023-02-15T03:35:52;100927.23;;;2.83;49.28
50592;BME280;36548;50.506;30.834;2023-02-15T03:38:49;100929.95;;;2.79;49.21
50592;BME280;36548;50.506;30.834;2023-02-15T03:40:11;100934.22;;;2.86;49.39
50592;BME280;36548;50.506;30.834;2023-02-15T03:43:04;100931.78;;;2.77;49.30
50592;BME280;36548;50.506;30.834;2023-02-15T03:44:16;100932.79;;;2.71;49.58
50592;BME280;36548;50.506;30.834;2023-02-15T03:45:30;100930.36;;;2.60;49.32
50592;BME280;36548;50.506;30.834;2023-02-15T03:46:53;100937.55;;;2.53;48.99
50592;BME280;36548;50.506;30.834;2023-02-15T03:48:03;100932.19;;;2.56;49.38
50592;BME280;36548;50.506;30.834;2023-02-15T03:49:17;100929.67;;;2.50;49.00
50592;BME280;36548;50.506;30.834;2023-02-15T03:50:31;100933.46;;;2.37;48.99
50592;BME280;36548;50.506;30.834;2023-02-15T03:52:02;100941.61;;;2.28;49.42
50592;BME280;36548;50.506;30.834;2023-02-15T03:53:15;100940.81;;;2.23;49.77
50592;BME280;36548;50.506;30.834;2023-02-15T03:54:27;100943.33;;;2.29;49.57
50592;BME280;36548;50.506;30.834;2023-02-15T03:55:56;100940.78;;;2.24;49.66
50592;BME280;36548;50.506;30.834;2023-02-15T03:57:09;100945.09;;;2.30;49.65
50592;BME280;36548;50.506;30.834;2023-02-15T03:58:36;100948.50;;;2.36;49.85
50592;BME280;36548;50.506;30.834;2023-02-15T04:01:50;100941.38;;;2.38;49.79
50592;BME280;36548;50.506;30.834;2023-02-15T04:04:33;100946.30;;;2.59;49.49
50592;BME280;36548;50.506;30.834;2023-02-15T04:05:44;100947.26;;;2.54;49.36
50592;BME280;36548;50.506;30.834;2023-02-15T04:06:53;100939.59;;;2.41;49.51
50592;BME280;36548;50.506;30.834;2023-02-15T04:08:03;100946.50;;;2.48;49.54
50592;BME280;36548;50.506;30.834;2023-02-15T04:09:18;100943.43;;;2.69;49.64
50592;BME280;36548;50.506;30.834;2023-02-15T04:10:47;100953.52;;;2.50;49.73
50592;BME280;36548;50.506;30.834;2023-02-15T04:12:02;100938.63;;;2.45;49.69
50592;BME280;36548;50.506;30.834;2023-02-15T04:13:18;100947.09;;;2.62;49.79
50592;BME280;36548;50.506;30.834;2023-02-15T04:14:28;100944.61;;;2.54;49.57
50592;BME280;36548;50.506;30.834;2023-02-15T04:15:55;100956.90;;;2.59;49.64
50592;BME280;36548;50.506;30.834;2023-02-15T04:17:22;100951.42;;;2.66;49.48
50592;BME280;36548;50.506;30.834;2023-02-15T04:18:33;100948.98;;;2.57;49.46
50592;BME280;36548;50.506;30.834;2023-02-15T04:20:02;100946.50;;;2.48;49.52
50592;BME280;36548;50.506;30.834;2023-02-15T04:21:31;100955.17;;;2.56;49.66
50592;BME280;36548;50.506;30.834;2023-02-15T04:23:06;100944.47;;;2.61;49.37
50592;BME280;36548;50.506;30.834;2023-02-15T04:24:34;100950.05;;;2.47;49.19
50592;BME280;36548;50.506;30.834;2023-02-15T04:26:05;100950.88;;;2.50;49.41
50592;BME280;36548;50.506;30.834;2023-02-15T04:27:15;100959.89;;;2.40;49.49
50592;BME280;36548;50.506;30.834;2023-02-15T04:28:25;100952.91;;;2.36;49.29
50592;BME280;36548;50.506;30.834;2023-02-15T04:29:34;100962.53;;;2.42;49.34
50592;BME280;36548;50.506;30.834;2023-02-15T04:30:44;100950.98;;;2.46;49.14
50592;BME280;36548;50.506;30.834;2023-02-15T04:31:56;100962.44;;;2.46;48.96
50592;BME280;36548;50.506;30.834;2023-02-15T04:33:05;100959.30;;;2.26;48.96
50592;BME280;36548;50.506;30.834;2023-02-15T04:34:14;100966.53;;;2.16;49.19
50592;BME280;36548;50.506;30.834;2023-02-15T04:35:24;100964.78;;;2.15;49.11
50592;BME280;36548;50.506;30.834;2023-02-15T04:36:34;100950.83;;;2.05;49.23
50592;BME280;36548;50.506;30.834;2023-02-15T04:37:43;100946.17;;;2.18;49.05
50592;BME280;36548;50.506;30.834;2023-02-15T04:38:52;100955.75;;;2.27;48.97
50592;BME280;36548;50.506;30.834;2023-02-15T04:40:02;100960.22;;;2.23;48.81
50592;BME280;36548;50.506;30.834;2023-02-15T04:41:18;100959.09;;;2.36;49.02
50592;BME280;36548;50.506;30.834;2023-02-15T04:42:27;100958.36;;;2.28;48.95
50592;BME280;36548;50.506;30.834;2023-02-15T04:43:37;100972.20;;;2.43;49.00
50592;BME280;36548;50.506;30.834;2023-02-15T04:44:46;100963.44;;;2.41;48.75
50592;BME280;36548;50.506;30.834;2023-02-15T04:45:55;100970.32;;;2.49;48.85
50592;BME280;36548;50.506;30.834;2023-02-15T04:47:05;100961.51;;;2.49;48.65
50592;BME280;36548;50.506;30.834;2023-02-15T04:48:14;100972.11;;;2.49;48.60
50592;BME280;36548;50.506;30.834;2023-02-15T04:49:23;100952.56;;;2.54;48.62
50592;BME280;36548;50.506;30.834;2023-02-15T04:50:32;100959.48;;;2.62;48.78
50592;BME280;36548;50.506;30.834;2023-02-15T04:51:41;100956.83;;;2.62;48.78
50592;BME280;36548;50.506;30.834;2023-02-15T04:52:50;100962.02;;;2.66;48.81
50592;BME280;36548;50.506;30.834;2023-02-15T04:54:01;100956.69;;;2.69;48.99
50592;BME280;36548;50.506;30.834;2023-02-15T04:55:11;100960.91;;;2.78;49.09
50592;BME280;36548;50.506;30.834;2023-02-15T04:56:22;100961.77;;;2.79;49.03
50592;BME280;36548;50.506;30.834;2023-02-15T04:57:31;100963.45;;;2.83;48.83
50592;BME280;36548;50.506;30.834;2023-02-15T04:58:39;100958.19;;;2.81;48.95
50592;BME280;36548;50.506;30.834;2023-02-15T04:59:50;100953.70;;;2.85;49.01
50592;BME280;36548;50.506;30.834;2023-02-15T05:00:59;100962.74;;;2.75;49.01
50592;BME280;36548;50.506;30.834;2023-02-15T05:02:15;100965.10;;;2.88;49.03
50592;BME280;36548;50.506;30.834;2023-02-15T05:03:24;100974.09;;;2.81;49.18
50592;BME280;36548;50.506;30.834;2023-02-15T05:04:34;100974.92;;;2.85;49.21
50592;BME280;36548;50.506;30.834;2023-02-15T05:05:43;100973.98;;;2.87;49.20
50592;BME280;36548;50.506;30.834;2023-02-15T05:06:53;100975.70;;;2.88;49.06
50592;BME280;36548;50.506;30.834;2023-02-15T05:08:02;100977.53;;;2.86;49.09
50592;BME280;36548;50.506;30.834;2023-02-15T05:09:13;100982.84;;;2.86;49.01
50592;BME280;36548;50.506;30.834;2023-02-15T05:10:23;100981.95;;;2.87;49.09
50592;BME280;36548;50.506;30.834;2023-02-15T05:11:38;100982.58;;;2.99;49.19
50592;BME280;36548;50.506;30.834;2023-02-15T05:12:47;100984.56;;;2.89;49.15
50592;BME280;36548;50.506;30.834;2023-02-15T05:13:56;100985.34;;;2.93;49.16
50592;BME280;36548;50.506;30.834;2023-02-15T05:15:07;100988.83;;;2.96;49.20
50592;BME280;36548;50.506;30.834;2023-02-15T05:16:16;100992.44;;;2.92;48.78
50592;BME280;36548;50.506;30.834;2023-02-15T05:17:26;100994.16;;;2.95;48.84
50592;BME280;36548;50.506;30.834;2023-02-15T05:18:34;100988.11;;;2.88;48.79
50592;BME280;36548;50.506;30.834;2023-02-15T05:19:43;100994.31;;;2.87;48.65
50592;BME280;36548;50.506;30.834;2023-02-15T05:20:52;100992.55;;;2.86;48.74
50592;BME280;36548;50.506;30.834;2023-02-15T05:22:01;100983.91;;;2.78;48.94
50592;BME280;36548;50.506;30.834;2023-02-15T05:23:10;100989.14;;;2.81;48.98
50592;BME280;36548;50.506;30.834;2023-02-15T05:24:19;100989.14;;;2.81;48.87
50592;BME280;36548;50.506;30.834;2023-02-15T05:25:49;100986.56;;;2.76;48.86
50592;BME280;36548;50.506;30.834;2023-02-15T05:27:17;100989.22;;;2.78;48.77
50592;BME280;36548;50.506;30.834;2023-02-15T05:28:45;100986.77;;;2.67;49.02
50592;BME280;36548;50.506;30.834;2023-02-15T05:29:53;100990.18;;;2.73;49.13
50592;BME280;36548;50.506;30.834;2023-02-15T05:31:15;100984.95;;;2.69;49.04
50592;BME280;36548;50.506;30.834;2023-02-15T05:32:26;100999.10;;;2.69;49.02
50592;BME280;36548;50.506;30.834;2023-02-15T05:33:42;100998.23;;;2.67;49.21
50592;BME280;36548;50.506;30.834;2023-02-15T05:34:50;100996.55;;;2.63;49.45
50592;BME280;36548;50.506;30.834;2023-02-15T05:36:00;100996.55;;;2.63;49.43
50592;BME280;36548;50.506;30.834;2023-02-15T05:37:11;101000.03;;;2.67;49.50
50592;BME280;36548;50.506;30.834;2023-02-15T05:38:26;100998.83;;;2.82;49.59
50592;BME280;36548;50.506;30.834;2023-02-15T05:39:35;101006.16;;;2.69;49.61
50592;BME280;36548;50.506;30.834;2023-02-15T05:40:51;101004.98;;;2.84;49.64
50592;BME280;36548;50.506;30.834;2023-02-15T05:42:00;101007.02;;;2.71;49.47
50592;BME280;36548;50.506;30.834;2023-02-15T05:43:11;101003.55;;;2.67;49.71
50592;BME280;36548;50.506;30.834;2023-02-15T05:44:19;101011.62;;;2.61;49.90
50592;BME280;36548;50.506;30.834;2023-02-15T05:45:29;101005.44;;;2.61;49.89
50592;BME280;36548;50.506;30.834;2023-02-15T05:46:39;101008.91;;;2.64;50.04
50592;BME280;36548;50.506;30.834;2023-02-15T05:47:50;101003.05;;;2.47;50.04
50592;BME280;36548;50.506;30.834;2023-02-15T05:48:58;101009.28;;;2.46;50.49
50592;BME280;36548;50.506;30.834;2023-02-15T05:50:09;101018.05;;;2.48;50.39
50592;BME280;36548;50.506;30.834;2023-02-15T05:51:25;101016.00;;;2.64;50.58
50592;BME280;36548;50.506;30.834;2023-02-15T05:52:35;101007.33;;;2.55;50.45
50592;BME280;36548;50.506;30.834;2023-02-15T05:53:44;101011.73;;;2.55;50.12
50592;BME280;36548;50.506;30.834;2023-02-15T05:54:59;101010.60;;;2.68;50.09
50592;BME280;36548;50.506;30.834;2023-02-15T05:56:11;101010.87;;;2.54;50.14
50592;BME280;36548;50.506;30.834;2023-02-15T05:57:20;101011.70;;;2.56;50.16
50592;BME280;36548;50.506;30.834;2023-02-15T05:58:38;101019.55;;;2.63;50.21
50592;BME280;36548;50.506;30.834;2023-02-15T05:59:48;101025.61;;;2.68;50.15
50592;BME280;36548;50.506;30.834;2023-02-15T06:00:57;101022.17;;;2.64;49.77
50592;BME280;36548;50.506;30.834;2023-02-15T06:02:07;101015.01;;;2.68;49.69
50592;BME280;36548;50.506;30.834;2023-02-15T06:03:16;101024.61;;;2.75;49.71
50592;BME280;36548;50.506;30.834;2023-02-15T06:04:26;101025.08;;;2.50;49.55
50592;BME280;36548;50.506;30.834;2023-02-15T06:05:36;101019.75;;;2.52;49.60
50592;BME280;36548;50.506;30.834;2023-02-15T06:06:44;101029.52;;;2.48;49.44
50592;BME280;36548;50.506;30.834;2023-02-15T06:07:53;101028.62;;;2.49;49.72
50592;BME280;36548;50.506;30.834;2023-02-15T06:09:02;101028.49;;;2.57;49.61
50592;BME280;36548;50.506;30.834;2023-02-15T06:10:12;101024.81;;;2.64;49.65
50592;BME280;36548;50.506;30.834;2023-02-15T06:11:27;101032.56;;;2.75;49.25
50592;BME280;36548;50.506;30.834;2023-02-15T06:12:38;101033.36;;;2.79;49.52
50592;BME280;36548;50.506;30.834;2023-02-15T06:13:47;101028.95;;;2.79;49.33
50592;BME280;36548;50.506;30.834;2023-02-15T06:14:56;101023.58;;;2.82;49.04
50592;BME280;36548;50.506;30.834;2023-02-15T06:16:05;101023.12;;;3.05;49.38
50592;BME280;36548;50.506;30.834;2023-02-15T06:17:15;101022.97;;;3.12;48.97
50592;BME280;36548;50.506;30.834;2023-02-15T06:18:26;101020.39;;;3.09;48.11
50592;BME280;36548;50.506;30.834;2023-02-15T06:19:41;101027.05;;;3.28;48.28
50592;BME280;36548;50.506;30.834;2023-02-15T06:20:50;101027.23;;;3.19;47.95
50592;BME280;36548;50.506;30.834;2023-02-15T06:21:59;101034.97;;;3.30;47.99
50592;BME280;36548;50.506;30.834;2023-02-15T06:23:09;101033.10;;;3.35;47.37
50592;BME280;36548;50.506;30.834;2023-02-15T06:24:17;101026.30;;;3.21;46.81
50592;BME280;36548;50.506;30.834;2023-02-15T06:25:26;101028.13;;;3.18;47.38
50592;BME280;36548;50.506;30.834;2023-02-15T06:26:35;101027.70;;;2.97;47.31
50592;BME280;36548;50.506;30.834;2023-02-15T06:27:44;101026.84;;;2.95;47.28
50592;BME280;36548;50.506;30.834;2023-02-15T06:28:53;101027.56;;;3.03;47.12
50592;BME280;36548;50.506;30.834;2023-02-15T06:30:03;101023.95;;;3.07;47.32
50592;BME280;36548;50.506;30.834;2023-02-15T06:31:12;101016.02;;;3.06;47.26
50592;BME280;36548;50.506;30.834;2023-02-15T06:32:22;101024.51;;;3.22;47.34
50592;BME280;36548;50.506;30.834;2023-02-15T06:33:32;101020.88;;;3.26;46.79
50592;BME280;36548;50.506;30.834;2023-02-15T06:34:42;101020.84;;;3.29;46.79
50592;BME280;36548;50.506;30.834;2023-02-15T06:35:51;101012.61;;;3.41;47.06
50592;BME280;36548;50.506;30.834;2023-02-15T06:37:06;101023.69;;;3.59;46.95
50592;BME280;36548;50.506;30.834;2023-02-15T06:38:16;101027.52;;;3.47;46.57
50592;BME280;36548;50.506;30.834;2023-02-15T06:39:25;101026.55;;;3.51;46.27
50592;BME280;36548;50.506;30.834;2023-02-15T06:40:35;101022.83;;;3.58;46.43
50592;BME280;36548;50.506;30.834;2023-02-15T06:41:50;101012.62;;;3.79;46.33
50592;BME280;36548;50.506;30.834;2023-02-15T06:42:59;101018.38;;;3.59;45.72
50592;BME280;36548;50.506;30.834;2023-02-15T06:44:07;101016.05;;;3.45;45.83
50592;BME280;36548;50.506;30.834;2023-02-15T06:45:17;101017.61;;;3.54;46.01
50592;BME280;36548;50.506;30.834;2023-02-15T06:46:27;101008.20;;;3.40;45.74
50592;BME280;36548;50.506;30.834;2023-02-15T06:47:36;101004.53;;;3.46;46.05
50592;BME280;36548;50.506;30.834;2023-02-15T06:48:53;101003.52;;;3.52;45.97
50592;BME280;36548;50.506;30.834;2023-02-15T06:50:03;101008.83;;;3.52;45.81
50592;BME280;36548;50.506;30.834;2023-02-15T06:51:19;101006.01;;;3.58;45.75
50592;BME280;36548;50.506;30.834;2023-02-15T06:52:28;101015.19;;;3.45;45.95
50592;BME280;36548;50.506;30.834;2023-02-15T06:53:38;101016.23;;;3.37;45.80
50592;BME280;36548;50.506;30.834;2023-02-15T06:54:50;101018.23;;;3.26;45.73